createdAt,value
2022-11-19T00:00:19.663Z,3.60
2022-11-19T00:02:50.021Z,3.50
2022-11-19T00:05:18.826Z,3.50
2022-11-19T00:07:47.511Z,3.50
2022-11-19T00:10:16.580Z,3.40
2022-11-19T00:12:56.560Z,3.40
2022-11-19T00:15:26.801Z,3.40
2022-11-19T00:17:55.766Z,3.40
2022-11-19T00:20:24.750Z,3.40
2022-11-19T00:22:54.324Z,3.40
2022-11-19T00:25:23.285Z,3.40
2022-11-19T00:27:52.781Z,3.30
2022-11-19T00:30:46.264Z,3.40
2022-11-19T00:33:12.128Z,3.30
2022-11-19T00:35:45.098Z,3.30
2022-11-19T00:38:13.891Z,3.30
2022-11-19T00:40:43.956Z,3.40
2022-11-19T00:43:30.369Z,3.30
2022-11-19T00:45:59.101Z,3.30
2022-11-19T00:48:29.128Z,3.30
2022-11-19T00:50:58.136Z,3.20
2022-11-19T00:53:26.836Z,3.20
2022-11-19T00:55:55.551Z,3.30
2022-11-19T00:58:24.162Z,3.30
2022-11-19T01:00:52.774Z,3.30
2022-11-19T01:03:21.608Z,3.30
2022-11-19T01:09:43.205Z,3.20
2022-11-19T01:12:11.771Z,3.20
2022-11-19T01:14:40.331Z,3.20
2022-11-19T01:17:08.880Z,3.20
2022-11-19T01:19:37.723Z,3.10
2022-11-19T01:22:06.217Z,3.10
2022-11-19T01:24:35.003Z,3.10
2022-11-19T01:27:05.306Z,3.10
2022-11-19T01:29:33.955Z,3.20
2022-11-19T01:32:02.610Z,3.20
2022-11-19T01:34:31.306Z,3.20
2022-11-19T01:37:00.121Z,3.20
2022-11-19T01:39:29.392Z,3.20
2022-11-19T01:41:57.953Z,3.20
2022-11-19T01:45:03.121Z,3.20
2022-11-19T01:47:32.023Z,3.10
2022-11-19T01:50:01.163Z,3.10
2022-11-19T01:52:29.823Z,3.10
2022-11-19T01:54:58.512Z,3.10
2022-11-19T01:57:27.464Z,3.00
2022-11-19T01:59:55.978Z,3.00
2022-11-19T02:02:26.509Z,3.00
2022-11-19T02:04:57.385Z,3.00
2022-11-19T02:07:29.579Z,3.00
2022-11-19T02:09:59.261Z,3.00
2022-11-19T02:12:38.883Z,3.00
2022-11-19T02:15:25.210Z,3.00
2022-11-19T02:18:20.213Z,2.90
2022-11-19T02:21:00.595Z,2.90
2022-11-19T02:24:07.378Z,2.80
2022-11-19T02:27:08.111Z,2.80
2022-11-19T02:30:06.711Z,2.80
2022-11-19T02:32:37.742Z,2.80
2022-11-19T02:35:20.953Z,2.80
2022-11-19T02:37:55.177Z,2.70
2022-11-19T02:40:30.055Z,2.70
2022-11-19T02:43:08.066Z,2.70
2022-11-19T02:45:41.232Z,2.80
2022-11-19T02:48:14.059Z,2.70
2022-11-19T02:50:47.449Z,2.80
2022-11-19T02:53:16.336Z,2.70
2022-11-19T02:56:07.937Z,2.80
2022-11-19T02:58:57.646Z,2.70
2022-11-19T03:01:48.900Z,2.70
2022-11-19T03:04:31.440Z,2.70
2022-11-19T03:07:04.724Z,2.70
2022-11-19T03:09:35.951Z,2.80
2022-11-19T03:12:14.695Z,2.70
2022-11-19T03:15:08.715Z,2.60
2022-11-19T03:17:54.815Z,2.60
2022-11-19T03:20:29.937Z,2.50
2022-11-19T03:23:03.622Z,2.50
2022-11-19T03:25:38.606Z,2.50
2022-11-19T03:28:14.013Z,2.50
2022-11-19T03:30:45.453Z,2.40
2022-11-19T03:33:19.943Z,2.40
2022-11-19T03:35:50.986Z,2.30
2022-11-19T03:38:26.234Z,2.30
2022-11-19T03:40:56.571Z,2.30
2022-11-19T03:43:31.543Z,2.30
2022-11-19T03:46:03.288Z,2.30
2022-11-19T03:48:34.335Z,2.30
2022-11-19T03:51:09.723Z,2.30
2022-11-19T03:53:38.297Z,2.30
2022-11-19T03:56:10.519Z,2.30
2022-11-19T03:58:40.530Z,2.30
2022-11-19T04:01:09.912Z,2.20
2022-11-19T04:03:40.250Z,2.20
2022-11-19T04:06:09.098Z,2.20
2022-11-19T04:08:37.683Z,2.20
2022-11-19T04:13:33.832Z,2.20
2022-11-19T04:16:02.427Z,2.20
2022-11-19T04:18:30.950Z,2.20
2022-11-19T04:21:00.931Z,2.10
2022-11-19T04:23:29.344Z,2.20
2022-11-19T04:25:57.815Z,2.20
2022-11-19T04:28:26.626Z,2.10
2022-11-19T04:30:55.220Z,2.10
2022-11-19T04:33:23.737Z,2.10
2022-11-19T04:35:55.091Z,2.00
2022-11-19T04:38:25.319Z,2.00
2022-11-19T04:40:53.832Z,2.00
2022-11-19T04:43:22.572Z,1.90
2022-11-19T04:45:51.047Z,2.00
2022-11-19T04:48:19.857Z,1.90
2022-11-19T04:50:48.306Z,2.00
2022-11-19T04:53:17.369Z,2.00
2022-11-19T04:55:47.332Z,1.90
2022-11-19T04:58:15.880Z,1.90
2022-11-19T05:00:44.559Z,1.90
2022-11-19T05:03:16.430Z,1.90
2022-11-19T05:05:45.269Z,1.90
2022-11-19T05:08:13.759Z,1.90
2022-11-19T05:10:42.234Z,1.90
2022-11-19T05:13:12.201Z,1.90
2022-11-19T05:15:40.994Z,1.90
2022-11-19T05:18:09.510Z,1.90
2022-11-19T05:20:38.111Z,1.90
2022-11-19T05:23:06.776Z,2.00
2022-11-19T05:25:35.380Z,2.00
2022-11-19T05:28:03.908Z,2.00
2022-11-19T05:30:34.152Z,2.00
2022-11-19T05:33:02.812Z,2.00
2022-11-19T05:35:31.435Z,1.90
2022-11-19T05:37:59.947Z,1.90
2022-11-19T05:40:28.362Z,1.90
2022-11-19T05:42:56.933Z,1.90
2022-11-19T05:45:25.702Z,1.90
2022-11-19T05:47:57.578Z,1.90
2022-11-19T05:50:26.041Z,1.90
2022-11-19T05:52:54.740Z,1.90
2022-11-19T05:55:23.567Z,1.90
2022-11-19T05:57:52.223Z,1.90
2022-11-19T06:00:21.842Z,1.90
2022-11-19T06:02:50.393Z,1.90
2022-11-19T06:05:21.122Z,1.90
2022-11-19T06:07:49.631Z,1.80
2022-11-19T06:10:18.348Z,1.90
2022-11-19T06:12:46.883Z,1.80
2022-11-19T06:15:15.881Z,1.80
2022-11-19T06:17:44.431Z,1.80
2022-11-19T06:20:13.118Z,1.80
2022-11-19T06:22:43.548Z,1.80
2022-11-19T06:25:12.024Z,1.80
2022-11-19T06:27:40.872Z,1.80
2022-11-19T06:30:10.788Z,1.80
2022-11-19T06:32:39.277Z,1.80
2022-11-19T06:35:08.606Z,1.70
2022-11-19T06:37:37.256Z,1.70
2022-11-19T06:40:08.562Z,1.80
2022-11-19T06:42:37.484Z,1.70
2022-11-19T06:45:07.369Z,1.70
2022-11-19T06:47:36.467Z,1.60
2022-11-19T06:50:06.074Z,1.60
2022-11-19T06:52:34.998Z,1.60
2022-11-19T06:55:04.053Z,1.60
2022-11-19T06:57:34.314Z,1.60
2022-11-19T07:00:02.798Z,1.60
2022-11-19T07:02:31.648Z,1.50
2022-11-19T07:05:00.234Z,1.50
2022-11-19T07:07:28.973Z,1.50
2022-11-19T07:09:57.496Z,1.40
2022-11-19T07:12:26.049Z,1.40
2022-11-19T07:15:01.095Z,1.40
2022-11-19T07:17:32.901Z,1.30
2022-11-19T07:20:01.734Z,1.30
2022-11-19T07:22:30.211Z,1.20
2022-11-19T07:25:00.192Z,1.20
2022-11-19T07:27:30.131Z,1.20
2022-11-19T07:30:00.103Z,1.10
2022-11-19T07:32:28.569Z,1.10
2022-11-19T07:34:57.723Z,1.10
2022-11-19T07:37:26.356Z,1.10
2022-11-19T07:39:54.883Z,1.10
2022-11-19T07:42:40.894Z,1.00
2022-11-19T07:45:11.652Z,1.10
2022-11-19T07:47:40.573Z,1.00
2022-11-19T07:50:09.713Z,1.00
2022-11-19T07:52:38.209Z,1.00
2022-11-19T07:55:07.998Z,1.00
2022-11-19T07:57:37.163Z,1.00
2022-11-19T08:00:07.520Z,0.90
2022-11-19T08:02:37.964Z,0.90
2022-11-19T08:05:07.441Z,0.80
2022-11-19T08:07:38.181Z,0.80
2022-11-19T08:10:07.898Z,0.80
2022-11-19T08:12:36.404Z,0.70
2022-11-19T08:15:05.301Z,0.70
2022-11-19T08:17:51.704Z,0.70
2022-11-19T08:20:21.726Z,0.60
2022-11-19T08:22:50.348Z,0.60
2022-11-19T08:25:19.078Z,0.50
2022-11-19T08:27:49.173Z,0.50
2022-11-19T08:30:18.066Z,0.40
2022-11-19T08:32:46.605Z,0.50
2022-11-19T08:35:16.486Z,0.60
2022-11-19T08:37:48.755Z,0.50
2022-11-19T08:40:18.366Z,0.50
2022-11-19T08:43:01.081Z,0.60
2022-11-19T08:45:31.655Z,0.60
2022-11-19T08:48:01.278Z,0.60
2022-11-19T08:50:31.894Z,0.60
2022-11-19T08:53:03.665Z,0.60
2022-11-19T08:55:33.259Z,0.60
2022-11-19T08:58:03.598Z,0.60
2022-11-19T09:00:33.751Z,0.50
2022-11-19T09:03:02.382Z,0.50
2022-11-19T09:05:31.100Z,0.50
2022-11-19T09:08:00.664Z,0.50
2022-11-19T09:10:30.695Z,0.50
2022-11-19T09:12:59.510Z,0.50
2022-11-19T09:15:28.214Z,0.50
2022-11-19T09:17:56.806Z,0.50
2022-11-19T09:20:25.829Z,0.60
2022-11-19T09:22:54.421Z,0.60
2022-11-19T09:25:23.147Z,0.60
2022-11-19T09:27:53.817Z,0.70
2022-11-19T09:30:22.463Z,0.80
2022-11-19T09:32:51.057Z,0.80
2022-11-19T09:35:20.432Z,0.90
2022-11-19T09:37:49.022Z,0.90
2022-11-19T09:40:21.007Z,1.00
2022-11-19T09:43:03.766Z,1.00
2022-11-19T09:45:48.093Z,1.10
2022-11-19T09:48:25.718Z,1.10
2022-11-19T09:50:59.649Z,1.10
2022-11-19T09:53:32.271Z,1.10
2022-11-19T09:56:02.341Z,1.10
2022-11-19T09:58:39.789Z,1.20
2022-11-19T10:01:08.798Z,1.20
2022-11-19T10:03:42.227Z,1.20
2022-11-19T10:06:24.147Z,1.30
2022-11-19T10:09:24.055Z,1.20
2022-11-19T10:12:08.415Z,1.20
2022-11-19T10:14:56.381Z,1.20
2022-11-19T10:17:36.863Z,1.30
2022-11-19T10:20:26.621Z,1.30
2022-11-19T10:23:02.147Z,1.40
2022-11-19T10:25:37.397Z,1.40
2022-11-19T10:28:13.445Z,1.40
2022-11-19T10:30:49.453Z,1.40
2022-11-19T10:33:24.550Z,1.40
2022-11-19T10:35:56.924Z,1.50
2022-11-19T10:38:31.284Z,1.50
2022-11-19T10:41:04.081Z,1.50
2022-11-19T10:43:38.828Z,1.50
2022-11-19T10:46:12.070Z,1.50
2022-11-19T10:48:44.815Z,1.50
2022-11-19T10:51:22.317Z,1.60
2022-11-19T10:53:52.277Z,1.70
2022-11-19T10:56:23.844Z,1.70
2022-11-19T10:58:58.167Z,1.70
2022-11-19T11:01:33.504Z,1.80
2022-11-19T11:04:08.860Z,1.80
2022-11-19T11:06:53.035Z,1.80
2022-11-19T11:09:31.134Z,1.80
2022-11-19T11:12:29.764Z,1.90
2022-11-19T11:15:02.488Z,1.80
2022-11-19T11:17:35.331Z,1.80
2022-11-19T11:20:07.490Z,1.80
2022-11-19T11:22:38.069Z,1.80
2022-11-19T11:25:20.998Z,1.90
2022-11-19T11:28:06.548Z,1.90
2022-11-19T11:30:36.232Z,1.90
2022-11-19T11:36:00.420Z,1.90
2022-11-19T11:38:30.419Z,1.90
2022-11-19T11:44:04.863Z,2.00
2022-11-19T11:46:39.825Z,2.00
2022-11-19T11:49:13.158Z,2.00
2022-11-19T11:51:43.581Z,2.00
2022-11-19T11:54:19.617Z,2.00
2022-11-19T11:56:49.102Z,2.00
2022-11-19T11:59:25.686Z,2.10
2022-11-19T12:01:56.750Z,2.10
2022-11-19T12:04:26.264Z,2.10
2022-11-19T12:07:08.755Z,2.10
2022-11-19T12:09:46.686Z,2.10
2022-11-19T12:12:28.657Z,2.10
2022-11-19T12:15:03.980Z,2.20
2022-11-19T12:17:45.452Z,2.20
2022-11-19T12:20:34.322Z,2.20
2022-11-19T12:23:25.205Z,2.20
2022-11-19T12:26:03.198Z,2.20
2022-11-19T12:28:48.613Z,2.20
2022-11-19T12:31:31.563Z,2.20
2022-11-19T12:34:17.582Z,2.20
2022-11-19T12:36:57.048Z,2.20
2022-11-19T12:39:39.724Z,2.20
2022-11-19T12:42:23.270Z,2.30
2022-11-19T12:45:00.624Z,2.30
2022-11-19T12:47:45.325Z,2.40
2022-11-19T12:50:22.209Z,2.40
2022-11-19T12:53:27.497Z,2.40
2022-11-19T12:56:09.125Z,2.40
2022-11-19T12:58:50.380Z,2.30
2022-11-19T13:01:23.506Z,2.30
2022-11-19T13:04:02.790Z,2.30
2022-11-19T13:06:37.176Z,2.30
2022-11-19T13:09:10.712Z,2.20
2022-11-19T13:11:45.798Z,2.30
2022-11-19T13:14:23.395Z,2.30
2022-11-19T13:16:53.332Z,2.30
2022-11-19T13:19:29.454Z,2.40
2022-11-19T13:22:01.933Z,2.40
2022-11-19T13:24:35.355Z,2.40
2022-11-19T13:27:11.493Z,2.40
2022-11-19T13:29:45.175Z,2.50
2022-11-19T13:32:22.990Z,2.40
2022-11-19T13:35:03.476Z,2.50
2022-11-19T13:37:45.619Z,2.40
2022-11-19T13:40:23.432Z,2.40
2022-11-19T13:46:27.906Z,2.40
2022-11-19T13:49:00.041Z,2.40
2022-11-19T13:51:34.287Z,2.40
2022-11-19T13:54:09.039Z,2.40
2022-11-19T13:56:44.423Z,2.50
2022-11-19T13:59:34.328Z,2.40
2022-11-19T14:02:34.742Z,2.50
2022-11-19T14:05:37.178Z,2.40
2022-11-19T14:08:26.891Z,2.40
2022-11-19T14:11:11.846Z,2.40
2022-11-19T14:13:55.748Z,2.40
2022-11-19T14:16:54.802Z,2.30
2022-11-19T14:19:41.183Z,2.30
2022-11-19T14:22:52.319Z,2.30
2022-11-19T14:26:03.933Z,2.30
2022-11-19T14:28:46.297Z,2.30
2022-11-19T14:31:16.249Z,2.30
2022-11-19T14:34:04.310Z,2.20
2022-11-19T14:36:48.774Z,2.20
2022-11-19T14:39:25.750Z,2.20
2022-11-19T14:42:15.930Z,2.20
2022-11-19T14:44:45.410Z,2.20
2022-11-19T14:47:36.526Z,2.20
2022-11-19T14:50:10.169Z,2.10
2022-11-19T14:52:41.231Z,2.10
2022-11-19T14:55:22.483Z,2.10
2022-11-19T14:57:59.656Z,2.00
2022-11-19T15:00:42.498Z,2.00
2022-11-19T15:03:18.609Z,2.00
2022-11-19T15:05:49.595Z,2.00
2022-11-19T15:08:47.985Z,1.90
2022-11-19T15:11:17.617Z,1.90
2022-11-19T15:13:47.170Z,1.80
2022-11-19T15:16:18.917Z,1.80
2022-11-19T15:19:21.111Z,1.70
2022-11-19T15:22:20.994Z,1.70
2022-11-19T15:25:03.760Z,1.60
2022-11-19T15:27:53.795Z,1.60
2022-11-19T15:30:25.930Z,1.50
2022-11-19T15:33:15.090Z,1.50
2022-11-19T15:36:15.484Z,1.40
2022-11-19T15:38:49.819Z,1.30
2022-11-19T15:41:23.821Z,1.30
2022-11-19T15:43:57.552Z,1.20
2022-11-19T15:46:36.141Z,1.20
2022-11-19T15:49:13.107Z,1.10
2022-11-19T15:51:57.155Z,1.00
2022-11-19T15:54:31.246Z,1.00
2022-11-19T15:57:02.658Z,0.90
2022-11-19T15:59:34.335Z,0.90
2022-11-19T16:02:04.825Z,0.80
2022-11-19T16:04:38.116Z,0.80
2022-11-19T16:07:09.353Z,0.70
2022-11-19T16:09:40.108Z,0.60
2022-11-19T16:12:36.992Z,0.60
2022-11-19T16:15:39.455Z,0.60
2022-11-19T16:18:15.737Z,0.50
2022-11-19T16:20:48.128Z,0.40
2022-11-19T16:23:19.479Z,0.30
2022-11-19T16:25:50.696Z,0.30
2022-11-19T16:28:24.053Z,0.20
2022-11-19T16:30:54.472Z,0.10
2022-11-19T16:33:24.794Z,0.10
2022-11-19T16:35:54.695Z,0.00
2022-11-19T16:38:28.276Z,-0.10
2022-11-19T16:41:16.048Z,-0.10
2022-11-19T16:43:48.826Z,-0.20
2022-11-19T16:46:20.705Z,-0.30
2022-11-19T16:48:58.560Z,-0.40
2022-11-19T16:51:40.086Z,-0.50
2022-11-19T16:54:10.660Z,-0.50
2022-11-19T16:56:45.852Z,-0.60
2022-11-19T16:59:20.667Z,-0.60
2022-11-19T17:01:55.425Z,-0.70
2022-11-19T17:04:28.325Z,-0.70
2022-11-19T17:06:58.467Z,-0.70
2022-11-19T17:09:37.664Z,-0.80
2022-11-19T17:12:24.067Z,-0.80
2022-11-19T17:14:55.595Z,-0.90
2022-11-19T17:17:40.743Z,-1.00
2022-11-19T17:21:00.365Z,-1.00
2022-11-19T17:23:31.148Z,-1.10
2022-11-19T17:26:02.017Z,-1.10
2022-11-19T17:28:38.335Z,-1.20
2022-11-19T17:31:15.394Z,-1.20
2022-11-19T17:33:53.087Z,-1.30
2022-11-19T17:36:22.359Z,-1.30
2022-11-19T17:38:51.732Z,-1.30
2022-11-19T17:41:37.794Z,-1.20
2022-11-19T17:44:31.014Z,-1.20
2022-11-19T17:47:01.310Z,-1.30
2022-11-19T17:49:29.979Z,-1.30
2022-11-19T17:52:00.388Z,-1.30
2022-11-19T17:54:31.565Z,-1.30
2022-11-19T17:57:00.281Z,-1.30
2022-11-19T17:59:30.313Z,-1.40
2022-11-19T18:01:58.919Z,-1.50
2022-11-19T18:04:27.714Z,-1.50
2022-11-19T18:06:56.411Z,-1.50
2022-11-19T18:09:25.378Z,-1.60
2022-11-19T18:11:54.037Z,-1.60
2022-11-19T18:14:22.577Z,-1.60
2022-11-19T18:16:52.705Z,-1.60
2022-11-19T18:19:26.576Z,-1.60
2022-11-19T18:21:56.109Z,-1.70
2022-11-19T18:24:25.201Z,-1.70
2022-11-19T18:26:54.344Z,-1.80
2022-11-19T18:29:23.885Z,-1.80
2022-11-19T18:31:54.045Z,-1.90
2022-11-19T18:34:24.757Z,-1.90
2022-11-19T18:36:54.452Z,-1.90
2022-11-19T18:39:24.890Z,-1.90
2022-11-19T18:41:53.816Z,-1.90
2022-11-19T18:44:33.645Z,-1.90
2022-11-19T18:47:06.776Z,-1.90
2022-11-19T18:49:36.073Z,-2.00
2022-11-19T18:52:06.567Z,-1.90
2022-11-19T18:54:35.472Z,-1.90
2022-11-19T18:57:04.185Z,-2.00
2022-11-19T18:59:35.765Z,-2.00
2022-11-19T19:02:06.407Z,-2.00
2022-11-19T19:04:35.393Z,-2.00
2022-11-19T19:07:04.213Z,-2.00
2022-11-19T19:09:32.955Z,-2.10
2022-11-19T19:12:19.090Z,-2.20
2022-11-19T19:14:51.702Z,-2.20
2022-11-19T19:17:22.005Z,-2.30
2022-11-19T19:19:50.727Z,-2.30
2022-11-19T19:22:20.843Z,-2.30
2022-11-19T19:24:52.684Z,-2.30
2022-11-19T19:27:25.773Z,-2.30
2022-11-19T19:29:54.482Z,-2.30
2022-11-19T19:32:24.928Z,-2.30
2022-11-19T19:34:54.586Z,-2.30
2022-11-19T19:37:23.382Z,-2.30
2022-11-19T19:39:52.150Z,-2.40
2022-11-19T19:42:20.951Z,-2.40
2022-11-19T19:44:49.974Z,-2.50
2022-11-19T19:47:18.675Z,-2.50
2022-11-19T19:49:49.001Z,-2.60
2022-11-19T19:52:17.764Z,-2.70
2022-11-19T19:54:46.741Z,-2.70
2022-11-19T19:57:16.539Z,-2.60
2022-11-19T19:59:45.401Z,-2.60
2022-11-19T20:02:14.548Z,-2.60
2022-11-19T20:04:43.265Z,-2.60
2022-11-19T20:07:13.541Z,-2.60
2022-11-19T20:09:42.259Z,-2.60
2022-11-19T20:12:11.067Z,-2.60
2022-11-19T20:14:39.769Z,-2.60
2022-11-19T20:17:08.819Z,-2.60
2022-11-19T20:19:37.765Z,-2.60
2022-11-19T20:22:06.497Z,-2.70
2022-11-19T20:24:36.571Z,-2.70
2022-11-19T20:27:05.401Z,-2.80
2022-11-19T20:29:34.091Z,-2.80
2022-11-19T20:32:02.981Z,-2.80
2022-11-19T20:34:31.645Z,-2.70
2022-11-19T20:37:00.328Z,-2.70
2022-11-19T20:39:29.047Z,-2.70
2022-11-19T20:42:16.793Z,-2.70
2022-11-19T20:44:45.492Z,-2.80
2022-11-19T20:47:14.204Z,-2.80
2022-11-19T20:49:43.095Z,-2.90
2022-11-19T20:52:13.444Z,-2.90
2022-11-19T20:54:42.072Z,-2.90
2022-11-19T20:57:13.101Z,-2.90
2022-11-19T20:59:41.851Z,-3.00
2022-11-19T21:02:11.479Z,-3.00
2022-11-19T21:04:40.415Z,-3.00
2022-11-19T21:07:09.091Z,-3.00
2022-11-19T21:09:37.845Z,-3.00
2022-11-19T21:12:06.846Z,-3.00
2022-11-19T21:14:37.412Z,-3.00
2022-11-19T21:17:05.974Z,-3.00
2022-11-19T21:19:34.714Z,-3.00
2022-11-19T21:22:03.291Z,-3.00
2022-11-19T21:24:32.251Z,-3.00
2022-11-19T21:27:03.526Z,-3.00
2022-11-19T21:29:32.167Z,-3.00
2022-11-19T21:32:02.514Z,-3.10
2022-11-19T21:34:31.237Z,-3.10
2022-11-19T21:36:59.975Z,-3.10
2022-11-19T21:39:28.871Z,-3.10
2022-11-19T21:41:57.499Z,-3.20
2022-11-19T21:44:26.088Z,-3.20
2022-11-19T21:46:54.681Z,-3.20
2022-11-19T21:49:25.185Z,-3.30
2022-11-19T21:51:55.256Z,-3.30
2022-11-19T21:54:23.893Z,-3.30
2022-11-19T21:56:52.556Z,-3.30
2022-11-19T21:59:21.802Z,-3.40
2022-11-19T22:01:54.554Z,-3.50
2022-11-19T22:04:25.160Z,-3.50
2022-11-19T22:06:54.092Z,-3.50
2022-11-19T22:09:23.096Z,-3.50
2022-11-19T22:11:51.919Z,-3.60
2022-11-19T22:14:20.496Z,-3.60
2022-11-19T22:16:49.282Z,-3.70
2022-11-19T22:19:18.089Z,-3.70
2022-11-19T22:21:48.661Z,-3.70
2022-11-19T22:24:17.346Z,-3.70
2022-11-19T22:26:46.362Z,-3.70
2022-11-19T22:29:15.036Z,-3.70
2022-11-19T22:31:44.315Z,-3.80
2022-11-19T22:34:13.539Z,-3.80
2022-11-19T22:36:42.991Z,-3.80
2022-11-19T22:39:13.874Z,-3.80
2022-11-19T22:41:42.959Z,-3.80
2022-11-19T22:44:12.412Z,-3.70
2022-11-19T22:46:41.128Z,-3.80
2022-11-19T22:49:09.763Z,-3.80
2022-11-19T22:51:38.484Z,-3.80
2022-11-19T22:54:11.736Z,-3.80
2022-11-19T22:56:42.087Z,-3.80
2022-11-19T22:59:10.654Z,-3.90
2022-11-19T23:01:39.513Z,-4.00
2022-11-19T23:04:09.549Z,-4.00
2022-11-19T23:06:39.511Z,-4.00
2022-11-19T23:09:09.238Z,-4.00
2022-11-19T23:11:55.104Z,-4.10
2022-11-19T23:14:25.804Z,-4.10
2022-11-19T23:16:54.614Z,-4.10
2022-11-19T23:19:23.987Z,-4.10
2022-11-19T23:21:52.858Z,-4.20
2022-11-19T23:24:21.450Z,-4.20
2022-11-19T23:26:50.064Z,-4.20
2022-11-19T23:29:19.302Z,-4.10
2022-11-19T23:31:50.218Z,-4.10
2022-11-19T23:34:19.043Z,-4.00
2022-11-19T23:36:48.083Z,-4.00
2022-11-19T23:39:19.583Z,-4.00
2022-11-19T23:41:48.785Z,-4.00
2022-11-19T23:44:17.299Z,-4.10
2022-11-19T23:46:46.055Z,-4.10
2022-11-19T23:49:16.112Z,-4.10
2022-11-19T23:51:44.947Z,-4.10
2022-11-19T23:54:14.144Z,-4.10
2022-11-19T23:56:42.737Z,-4.10
2022-11-19T23:59:11.606Z,-4.00
